sensor_id;sensor_type;location;lat;lon;timestamp;P1;durP1;ratioP1;P2;durP2;ratioP2
5355;SDS011;70449;52.486;13.386;2023-08-06T00:00:24;15.73;;;8.30;;
5355;SDS011;70449;52.486;13.386;2023-08-06T00:02:53;15.00;;;9.43;;
5355;SDS011;70449;52.486;13.386;2023-08-06T00:05:20;14.17;;;9.07;;
5355;SDS011;70449;52.486;13.386;2023-08-06T00:07:47;12.73;;;8.50;;
5355;SDS011;70449;52.486;13.386;2023-08-06T00:10:14;16.60;;;9.43;;
5355;SDS011;70449;52.486;13.386;2023-08-06T00:12:42;11.20;;;9.00;;
5355;SDS011;70449;52.486;13.386;2023-08-06T00:15:10;13.80;;;9.33;;
5355;SDS011;70449;52.486;13.386;2023-08-06T00:17:39;15.10;;;9.53;;
5355;SDS011;70449;52.486;13.386;2023-08-06T00:20:06;12.83;;;9.17;;
5355;SDS011;70449;52.486;13.386;2023-08-06T00:22:35;11.70;;;8.80;;
5355;SDS011;70449;52.486;13.386;2023-08-06T00:25:04;11.30;;;8.50;;
5355;SDS011;70449;52.486;13.386;2023-08-06T00:27:32;10.60;;;7.40;;
5355;SDS011;70449;52.486;13.386;2023-08-06T00:29:59;9.43;;;8.03;;
5355;SDS011;70449;52.486;13.386;2023-08-06T00:32:26;12.13;;;8.37;;
5355;SDS011;70449;52.486;13.386;2023-08-06T00:34:55;8.53;;;6.97;;
5355;SDS011;70449;52.486;13.386;2023-08-06T00:37:22;10.00;;;8.73;;
5355;SDS011;70449;52.486;13.386;2023-08-06T00:39:49;16.13;;;9.17;;
5355;SDS011;70449;52.486;13.386;2023-08-06T00:42:16;10.57;;;9.07;;
5355;SDS011;70449;52.486;13.386;2023-08-06T00:44:45;10.17;;;8.73;;
5355;SDS011;70449;52.486;13.386;2023-08-06T00:47:13;11.63;;;8.37;;
5355;SDS011;70449;52.486;13.386;2023-08-06T00:49:41;10.07;;;7.90;;
5355;SDS011;70449;52.486;13.386;2023-08-06T00:52:10;10.57;;;8.53;;
5355;SDS011;70449;52.486;13.386;2023-08-06T00:54:39;12.63;;;8.63;;
5355;SDS011;70449;52.486;13.386;2023-08-06T00:57:07;19.63;;;9.27;;
5355;SDS011;70449;52.486;13.386;2023-08-06T00:59:35;13.47;;;9.60;;
5355;SDS011;70449;52.486;13.386;2023-08-06T01:02:03;10.20;;;8.80;;
5355;SDS011;70449;52.486;13.386;2023-08-06T01:04:32;16.63;;;9.10;;
5355;SDS011;70449;52.486;13.386;2023-08-06T01:07:02;10.23;;;8.67;;
5355;SDS011;70449;52.486;13.386;2023-08-06T01:09:45;10.87;;;8.30;;
5355;SDS011;70449;52.486;13.386;2023-08-06T01:12:25;9.63;;;7.60;;
5355;SDS011;70449;52.486;13.386;2023-08-06T01:15:02;10.83;;;8.10;;
5355;SDS011;70449;52.486;13.386;2023-08-06T01:17:34;18.20;;;10.13;;
5355;SDS011;70449;52.486;13.386;2023-08-06T01:20:02;10.37;;;8.60;;
5355;SDS011;70449;52.486;13.386;2023-08-06T01:22:32;10.30;;;8.07;;
5355;SDS011;70449;52.486;13.386;2023-08-06T01:24:59;9.63;;;8.03;;
5355;SDS011;70449;52.486;13.386;2023-08-06T01:27:28;10.60;;;8.77;;
5355;SDS011;70449;52.486;13.386;2023-08-06T01:30:02;13.53;;;8.53;;
5355;SDS011;70449;52.486;13.386;2023-08-06T01:32:35;10.53;;;8.97;;
5355;SDS011;70449;52.486;13.386;2023-08-06T01:35:05;11.60;;;8.70;;
5355;SDS011;70449;52.486;13.386;2023-08-06T01:37:36;12.13;;;8.37;;
5355;SDS011;70449;52.486;13.386;2023-08-06T01:40:05;14.70;;;8.33;;
5355;SDS011;70449;52.486;13.386;2023-08-06T01:42:36;10.50;;;8.30;;
5355;SDS011;70449;52.486;13.386;2023-08-06T01:45:03;11.07;;;8.80;;
5355;SDS011;70449;52.486;13.386;2023-08-06T01:47:32;15.80;;;8.70;;
5355;SDS011;70449;52.486;13.386;2023-08-06T01:49:59;10.67;;;8.37;;
5355;SDS011;70449;52.486;13.386;2023-08-06T01:52:26;11.47;;;8.83;;
5355;SDS011;70449;52.486;13.386;2023-08-06T01:54:55;9.50;;;8.60;;
5355;SDS011;70449;52.486;13.386;2023-08-06T01:57:22;13.73;;;8.30;;
5355;SDS011;70449;52.486;13.386;2023-08-06T01:59:50;14.70;;;8.93;;
5355;SDS011;70449;52.486;13.386;2023-08-06T02:02:17;10.47;;;8.30;;
5355;SDS011;70449;52.486;13.386;2023-08-06T02:04:44;13.40;;;8.23;;
5355;SDS011;70449;52.486;13.386;2023-08-06T02:07:11;13.30;;;9.30;;
5355;SDS011;70449;52.486;13.386;2023-08-06T02:09:39;11.80;;;9.10;;
5355;SDS011;70449;52.486;13.386;2023-08-06T02:12:08;11.80;;;8.47;;
5355;SDS011;70449;52.486;13.386;2023-08-06T02:14:35;12.30;;;8.80;;
5355;SDS011;70449;52.486;13.386;2023-08-06T02:17:03;15.17;;;10.07;;
5355;SDS011;70449;52.486;13.386;2023-08-06T02:19:30;15.80;;;9.70;;
5355;SDS011;70449;52.486;13.386;2023-08-06T02:21:57;12.03;;;9.50;;
5355;SDS011;70449;52.486;13.386;2023-08-06T02:24:24;14.10;;;9.30;;
5355;SDS011;70449;52.486;13.386;2023-08-06T02:26:52;17.87;;;8.63;;
5355;SDS011;70449;52.486;13.386;2023-08-06T02:29:22;9.80;;;8.80;;
5355;SDS011;70449;52.486;13.386;2023-08-06T02:31:49;10.37;;;9.27;;
5355;SDS011;70449;52.486;13.386;2023-08-06T02:34:16;12.87;;;10.03;;
5355;SDS011;70449;52.486;13.386;2023-08-06T02:36:43;14.77;;;9.50;;
5355;SDS011;70449;52.486;13.386;2023-08-06T02:39:11;9.30;;;8.30;;
5355;SDS011;70449;52.486;13.386;2023-08-06T02:41:38;13.33;;;9.60;;
5355;SDS011;70449;52.486;13.386;2023-08-06T02:44:05;12.47;;;8.73;;
5355;SDS011;70449;52.486;13.386;2023-08-06T02:46:33;12.83;;;9.73;;
5355;SDS011;70449;52.486;13.386;2023-08-06T02:49:00;13.20;;;8.37;;
5355;SDS011;70449;52.486;13.386;2023-08-06T02:51:28;25.93;;;7.63;;
5355;SDS011;70449;52.486;13.386;2023-08-06T02:53:55;15.57;;;8.93;;
5355;SDS011;70449;52.486;13.386;2023-08-06T02:56:22;11.70;;;8.73;;
5355;SDS011;70449;52.486;13.386;2023-08-06T02:58:49;13.20;;;9.00;;
5355;SDS011;70449;52.486;13.386;2023-08-06T03:01:16;10.10;;;7.40;;
5355;SDS011;70449;52.486;13.386;2023-08-06T03:03:45;10.83;;;8.37;;
5355;SDS011;70449;52.486;13.386;2023-08-06T03:06:12;10.47;;;8.53;;
5355;SDS011;70449;52.486;13.386;2023-08-06T03:08:39;9.90;;;8.63;;
5355;SDS011;70449;52.486;13.386;2023-08-06T03:11:06;11.63;;;8.53;;
5355;SDS011;70449;52.486;13.386;2023-08-06T03:13:34;9.90;;;7.43;;
5355;SDS011;70449;52.486;13.386;2023-08-06T03:16:01;11.70;;;8.27;;
5355;SDS011;70449;52.486;13.386;2023-08-06T03:18:29;10.43;;;7.97;;
5355;SDS011;70449;52.486;13.386;2023-08-06T03:20:57;10.43;;;8.37;;
5355;SDS011;70449;52.486;13.386;2023-08-06T03:23:24;8.97;;;8.07;;
5355;SDS011;70449;52.486;13.386;2023-08-06T03:25:52;18.77;;;8.37;;
5355;SDS011;70449;52.486;13.386;2023-08-06T03:28:19;12.30;;;8.40;;
5355;SDS011;70449;52.486;13.386;2023-08-06T03:30:47;11.90;;;8.27;;
5355;SDS011;70449;52.486;13.386;2023-08-06T03:33:15;10.47;;;8.63;;
5355;SDS011;70449;52.486;13.386;2023-08-06T03:35:42;15.10;;;8.50;;
5355;SDS011;70449;52.486;13.386;2023-08-06T03:38:10;11.57;;;7.40;;
5355;SDS011;70449;52.486;13.386;2023-08-06T03:40:37;8.80;;;7.90;;
5355;SDS011;70449;52.486;13.386;2023-08-06T03:43:04;12.23;;;8.20;;
5355;SDS011;70449;52.486;13.386;2023-08-06T03:45:31;10.10;;;7.83;;
5355;SDS011;70449;52.486;13.386;2023-08-06T03:47:59;10.73;;;7.50;;
5355;SDS011;70449;52.486;13.386;2023-08-06T03:50:27;12.60;;;7.43;;
5355;SDS011;70449;52.486;13.386;2023-08-06T03:52:54;10.63;;;7.10;;
5355;SDS011;70449;52.486;13.386;2023-08-06T03:55:26;10.77;;;7.73;;
5355;SDS011;70449;52.486;13.386;2023-08-06T03:57:53;9.50;;;6.70;;
5355;SDS011;70449;52.486;13.386;2023-08-06T04:00:20;13.50;;;7.37;;
5355;SDS011;70449;52.486;13.386;2023-08-06T04:02:47;12.07;;;7.70;;
5355;SDS011;70449;52.486;13.386;2023-08-06T04:05:15;11.17;;;7.70;;
5355;SDS011;70449;52.486;13.386;2023-08-06T04:07:43;13.50;;;8.40;;
5355;SDS011;70449;52.486;13.386;2023-08-06T04:10:10;8.83;;;7.20;;
5355;SDS011;70449;52.486;13.386;2023-08-06T04:12:38;11.47;;;7.60;;
5355;SDS011;70449;52.486;13.386;2023-08-06T04:15:06;8.93;;;7.23;;
5355;SDS011;70449;52.486;13.386;2023-08-06T04:17:34;8.03;;;6.80;;
5355;SDS011;70449;52.486;13.386;2023-08-06T04:20:01;14.40;;;6.93;;
5355;SDS011;70449;52.486;13.386;2023-08-06T04:22:29;7.67;;;6.93;;
5355;SDS011;70449;52.486;13.386;2023-08-06T04:24:56;7.13;;;5.93;;
5355;SDS011;70449;52.486;13.386;2023-08-06T04:27:23;8.70;;;6.87;;
5355;SDS011;70449;52.486;13.386;2023-08-06T04:29:52;11.23;;;7.50;;
5355;SDS011;70449;52.486;13.386;2023-08-06T04:32:19;9.27;;;7.37;;
5355;SDS011;70449;52.486;13.386;2023-08-06T04:37:14;14.23;;;7.63;;
5355;SDS011;70449;52.486;13.386;2023-08-06T04:39:41;10.07;;;7.00;;
5355;SDS011;70449;52.486;13.386;2023-08-06T04:42:09;10.03;;;7.13;;
5355;SDS011;70449;52.486;13.386;2023-08-06T04:44:36;9.20;;;6.10;;
5355;SDS011;70449;52.486;13.386;2023-08-06T04:47:04;9.27;;;6.63;;
5355;SDS011;70449;52.486;13.386;2023-08-06T04:49:32;8.20;;;5.90;;
5355;SDS011;70449;52.486;13.386;2023-08-06T04:51:59;6.77;;;6.07;;
5355;SDS011;70449;52.486;13.386;2023-08-06T04:54:26;13.10;;;7.43;;
5355;SDS011;70449;52.486;13.386;2023-08-06T04:56:53;8.17;;;6.70;;
5355;SDS011;70449;52.486;13.386;2023-08-06T04:59:20;8.93;;;7.13;;
5355;SDS011;70449;52.486;13.386;2023-08-06T05:01:47;7.03;;;6.20;;
5355;SDS011;70449;52.486;13.386;2023-08-06T05:04:16;6.90;;;6.17;;
5355;SDS011;70449;52.486;13.386;2023-08-06T05:06:43;7.60;;;6.20;;
5355;SDS011;70449;52.486;13.386;2023-08-06T05:09:10;8.03;;;6.03;;
5355;SDS011;70449;52.486;13.386;2023-08-06T05:11:37;10.40;;;7.00;;
5355;SDS011;70449;52.486;13.386;2023-08-06T05:14:04;10.17;;;5.87;;
5355;SDS011;70449;52.486;13.386;2023-08-06T05:16:31;12.07;;;6.90;;
5355;SDS011;70449;52.486;13.386;2023-08-06T05:18:58;8.17;;;6.97;;
5355;SDS011;70449;52.486;13.386;2023-08-06T05:21:27;9.80;;;7.03;;
5355;SDS011;70449;52.486;13.386;2023-08-06T05:23:54;8.63;;;6.90;;
5355;SDS011;70449;52.486;13.386;2023-08-06T05:26:21;9.10;;;6.50;;
5355;SDS011;70449;52.486;13.386;2023-08-06T05:28:49;8.07;;;6.33;;
5355;SDS011;70449;52.486;13.386;2023-08-06T05:31:16;11.80;;;7.20;;
5355;SDS011;70449;52.486;13.386;2023-08-06T05:33:43;11.27;;;6.73;;
5355;SDS011;70449;52.486;13.386;2023-08-06T05:36:10;9.53;;;7.30;;
5355;SDS011;70449;52.486;13.386;2023-08-06T05:38:39;8.90;;;7.17;;
5355;SDS011;70449;52.486;13.386;2023-08-06T05:41:07;9.10;;;6.60;;
5355;SDS011;70449;52.486;13.386;2023-08-06T05:43:34;7.73;;;6.03;;
5355;SDS011;70449;52.486;13.386;2023-08-06T05:46:01;8.63;;;7.00;;
5355;SDS011;70449;52.486;13.386;2023-08-06T05:48:29;7.87;;;6.67;;
5355;SDS011;70449;52.486;13.386;2023-08-06T05:50:59;12.10;;;6.77;;
5355;SDS011;70449;52.486;13.386;2023-08-06T05:53:26;8.17;;;7.37;;
5355;SDS011;70449;52.486;13.386;2023-08-06T05:55:54;11.53;;;7.60;;
5355;SDS011;70449;52.486;13.386;2023-08-06T05:58:22;11.43;;;6.70;;
5355;SDS011;70449;52.486;13.386;2023-08-06T06:00:51;7.77;;;6.50;;
5355;SDS011;70449;52.486;13.386;2023-08-06T06:03:18;10.60;;;7.40;;
5355;SDS011;70449;52.486;13.386;2023-08-06T06:05:45;8.17;;;5.87;;
5355;SDS011;70449;52.486;13.386;2023-08-06T06:08:12;6.53;;;6.03;;
5355;SDS011;70449;52.486;13.386;2023-08-06T06:10:40;7.03;;;6.20;;
5355;SDS011;70449;52.486;13.386;2023-08-06T06:13:09;9.03;;;6.20;;
5355;SDS011;70449;52.486;13.386;2023-08-06T06:15:36;8.77;;;7.07;;
5355;SDS011;70449;52.486;13.386;2023-08-06T06:18:03;10.27;;;7.27;;
5355;SDS011;70449;52.486;13.386;2023-08-06T06:20:31;9.03;;;6.40;;
5355;SDS011;70449;52.486;13.386;2023-08-06T06:22:59;9.10;;;7.57;;
5355;SDS011;70449;52.486;13.386;2023-08-06T06:25:26;10.47;;;7.20;;
5355;SDS011;70449;52.486;13.386;2023-08-06T06:27:53;12.43;;;6.90;;
5355;SDS011;70449;52.486;13.386;2023-08-06T06:30:21;7.83;;;6.50;;
5355;SDS011;70449;52.486;13.386;2023-08-06T06:32:49;7.87;;;6.80;;
5355;SDS011;70449;52.486;13.386;2023-08-06T06:35:16;7.63;;;6.83;;
5355;SDS011;70449;52.486;13.386;2023-08-06T06:37:43;7.37;;;6.67;;
5355;SDS011;70449;52.486;13.386;2023-08-06T06:40:10;8.50;;;6.73;;
5355;SDS011;70449;52.486;13.386;2023-08-06T06:42:38;10.50;;;6.33;;
5355;SDS011;70449;52.486;13.386;2023-08-06T06:45:05;8.53;;;6.00;;
5355;SDS011;70449;52.486;13.386;2023-08-06T06:47:36;10.90;;;6.30;;
5355;SDS011;70449;52.486;13.386;2023-08-06T06:50:03;12.17;;;6.63;;
5355;SDS011;70449;52.486;13.386;2023-08-06T06:52:31;9.13;;;7.70;;
5355;SDS011;70449;52.486;13.386;2023-08-06T06:54:59;17.23;;;6.57;;
5355;SDS011;70449;52.486;13.386;2023-08-06T06:57:26;8.13;;;6.27;;
5355;SDS011;70449;52.486;13.386;2023-08-06T06:59:53;11.70;;;6.23;;
5355;SDS011;70449;52.486;13.386;2023-08-06T07:02:20;6.73;;;6.03;;
5355;SDS011;70449;52.486;13.386;2023-08-06T07:04:49;7.43;;;6.40;;
5355;SDS011;70449;52.486;13.386;2023-08-06T07:07:16;6.40;;;5.80;;
5355;SDS011;70449;52.486;13.386;2023-08-06T07:09:44;7.30;;;6.43;;
5355;SDS011;70449;52.486;13.386;2023-08-06T07:12:11;9.80;;;6.50;;
5355;SDS011;70449;52.486;13.386;2023-08-06T07:14:38;12.40;;;6.60;;
5355;SDS011;70449;52.486;13.386;2023-08-06T07:17:05;6.87;;;6.23;;
5355;SDS011;70449;52.486;13.386;2023-08-06T07:19:32;6.83;;;5.23;;
5355;SDS011;70449;52.486;13.386;2023-08-06T07:22:01;8.33;;;5.93;;
5355;SDS011;70449;52.486;13.386;2023-08-06T07:24:28;8.30;;;6.03;;
5355;SDS011;70449;52.486;13.386;2023-08-06T07:26:55;7.13;;;6.47;;
5355;SDS011;70449;52.486;13.386;2023-08-06T07:29:22;10.53;;;6.37;;
5355;SDS011;70449;52.486;13.386;2023-08-06T07:31:49;9.07;;;6.53;;
5355;SDS011;70449;52.486;13.386;2023-08-06T07:34:17;11.03;;;6.97;;
5355;SDS011;70449;52.486;13.386;2023-08-06T07:36:44;7.10;;;6.40;;
5355;SDS011;70449;52.486;13.386;2023-08-06T07:39:13;13.80;;;7.73;;
5355;SDS011;70449;52.486;13.386;2023-08-06T07:41:41;8.53;;;6.40;;
5355;SDS011;70449;52.486;13.386;2023-08-06T07:44:10;7.83;;;7.03;;
5355;SDS011;70449;52.486;13.386;2023-08-06T07:46:38;8.40;;;6.63;;
5355;SDS011;70449;52.486;13.386;2023-08-06T07:49:05;9.47;;;8.40;;
5355;SDS011;70449;52.486;13.386;2023-08-06T07:51:32;13.30;;;7.30;;
5355;SDS011;70449;52.486;13.386;2023-08-06T07:53:59;7.40;;;6.67;;
5355;SDS011;70449;52.486;13.386;2023-08-06T07:56:27;8.17;;;7.30;;
5355;SDS011;70449;52.486;13.386;2023-08-06T07:58:55;11.80;;;6.87;;
5355;SDS011;70449;52.486;13.386;2023-08-06T08:01:22;9.00;;;6.67;;
5355;SDS011;70449;52.486;13.386;2023-08-06T08:03:49;14.23;;;7.60;;
5355;SDS011;70449;52.486;13.386;2023-08-06T08:06:16;9.93;;;7.30;;
5355;SDS011;70449;52.486;13.386;2023-08-06T08:08:44;8.63;;;7.73;;
5355;SDS011;70449;52.486;13.386;2023-08-06T08:11:11;12.00;;;7.60;;
5355;SDS011;70449;52.486;13.386;2023-08-06T08:13:40;9.83;;;7.93;;
5355;SDS011;70449;52.486;13.386;2023-08-06T08:16:07;11.23;;;7.70;;
5355;SDS011;70449;52.486;13.386;2023-08-06T08:18:35;12.77;;;8.50;;
5355;SDS011;70449;52.486;13.386;2023-08-06T08:21:02;10.80;;;8.10;;
5355;SDS011;70449;52.486;13.386;2023-08-06T08:23:30;8.40;;;7.40;;
5355;SDS011;70449;52.486;13.386;2023-08-06T08:25:57;9.80;;;8.80;;
5355;SDS011;70449;52.486;13.386;2023-08-06T08:28:27;8.70;;;7.43;;
5355;SDS011;70449;52.486;13.386;2023-08-06T08:30:55;12.30;;;8.33;;
5355;SDS011;70449;52.486;13.386;2023-08-06T08:33:22;14.20;;;9.20;;
5355;SDS011;70449;52.486;13.386;2023-08-06T08:35:50;10.63;;;9.53;;
5355;SDS011;70449;52.486;13.386;2023-08-06T08:38:17;10.30;;;8.10;;
5355;SDS011;70449;52.486;13.386;2023-08-06T08:40:45;16.00;;;9.07;;
5355;SDS011;70449;52.486;13.386;2023-08-06T08:43:17;10.23;;;9.10;;
5355;SDS011;70449;52.486;13.386;2023-08-06T08:45:49;17.20;;;9.77;;
5355;SDS011;70449;52.486;13.386;2023-08-06T08:48:21;13.60;;;10.37;;
5355;SDS011;70449;52.486;13.386;2023-08-06T08:50:49;10.90;;;9.40;;
5355;SDS011;70449;52.486;13.386;2023-08-06T08:53:17;13.27;;;10.43;;
5355;SDS011;70449;52.486;13.386;2023-08-06T08:55:48;14.70;;;10.67;;
5355;SDS011;70449;52.486;13.386;2023-08-06T08:58:15;11.87;;;10.43;;
5355;SDS011;70449;52.486;13.386;2023-08-06T09:00:43;14.60;;;11.37;;
5355;SDS011;70449;52.486;13.386;2023-08-06T09:03:13;13.90;;;10.90;;
5355;SDS011;70449;52.486;13.386;2023-08-06T09:05:44;16.10;;;12.17;;
5355;SDS011;70449;52.486;13.386;2023-08-06T09:08:15;16.83;;;11.60;;
5355;SDS011;70449;52.486;13.386;2023-08-06T09:10:49;16.30;;;11.53;;
5355;SDS011;70449;52.486;13.386;2023-08-06T09:13:18;13.07;;;10.40;;
5355;SDS011;70449;52.486;13.386;2023-08-06T09:15:48;15.30;;;12.03;;
5355;SDS011;70449;52.486;13.386;2023-08-06T09:18:24;19.20;;;13.10;;
5355;SDS011;70449;52.486;13.386;2023-08-06T09:20:55;13.70;;;11.50;;
5355;SDS011;70449;52.486;13.386;2023-08-06T09:23:27;15.40;;;12.57;;
5355;SDS011;70449;52.486;13.386;2023-08-06T09:25:55;17.77;;;11.10;;
5355;SDS011;70449;52.486;13.386;2023-08-06T09:28:23;17.43;;;12.30;;
5355;SDS011;70449;52.486;13.386;2023-08-06T09:30:50;18.70;;;14.10;;
5355;SDS011;70449;52.486;13.386;2023-08-06T09:33:22;14.60;;;12.63;;
5355;SDS011;70449;52.486;13.386;2023-08-06T09:35:49;13.40;;;10.60;;
5355;SDS011;70449;52.486;13.386;2023-08-06T09:38:18;16.33;;;11.87;;
5355;SDS011;70449;52.486;13.386;2023-08-06T09:40:47;15.30;;;11.53;;
5355;SDS011;70449;52.486;13.386;2023-08-06T09:43:18;16.90;;;10.87;;
5355;SDS011;70449;52.486;13.386;2023-08-06T09:45:45;21.53;;;10.90;;
5355;SDS011;70449;52.486;13.386;2023-08-06T09:48:13;35.80;;;11.37;;
5355;SDS011;70449;52.486;13.386;2023-08-06T09:50:40;14.47;;;12.10;;
5355;SDS011;70449;52.486;13.386;2023-08-06T09:53:08;13.73;;;11.50;;
5355;SDS011;70449;52.486;13.386;2023-08-06T09:55:37;17.37;;;11.40;;
5355;SDS011;70449;52.486;13.386;2023-08-06T09:58:05;18.00;;;11.83;;
5355;SDS011;70449;52.486;13.386;2023-08-06T10:00:33;13.50;;;10.73;;
5355;SDS011;70449;52.486;13.386;2023-08-06T10:03:01;18.60;;;12.50;;
5355;SDS011;70449;52.486;13.386;2023-08-06T10:05:29;15.60;;;11.30;;
5355;SDS011;70449;52.486;13.386;2023-08-06T10:07:59;14.83;;;11.33;;
5355;SDS011;70449;52.486;13.386;2023-08-06T10:10:28;13.53;;;11.70;;
5355;SDS011;70449;52.486;13.386;2023-08-06T10:13:00;14.77;;;10.87;;
5355;SDS011;70449;52.486;13.386;2023-08-06T10:15:30;15.10;;;9.50;;
5355;SDS011;70449;52.486;13.386;2023-08-06T10:17:59;14.50;;;11.60;;
5355;SDS011;70449;52.486;13.386;2023-08-06T10:20:32;15.33;;;11.77;;
5355;SDS011;70449;52.486;13.386;2023-08-06T10:23:01;15.10;;;11.47;;
5355;SDS011;70449;52.486;13.386;2023-08-06T10:25:32;14.70;;;12.10;;
5355;SDS011;70449;52.486;13.386;2023-08-06T10:28:02;16.97;;;12.67;;
5355;SDS011;70449;52.486;13.386;2023-08-06T10:30:41;19.20;;;11.73;;
5355;SDS011;70449;52.486;13.386;2023-08-06T10:33:10;15.47;;;12.47;;
5355;SDS011;70449;52.486;13.386;2023-08-06T10:35:40;16.60;;;12.60;;
5355;SDS011;70449;52.486;13.386;2023-08-06T10:38:10;14.03;;;12.53;;
5355;SDS011;70449;52.486;13.386;2023-08-06T10:40:40;23.90;;;13.37;;
5355;SDS011;70449;52.486;13.386;2023-08-06T10:43:24;20.23;;;12.77;;
5355;SDS011;70449;52.486;13.386;2023-08-06T10:45:53;14.93;;;11.13;;
5355;SDS011;70449;52.486;13.386;2023-08-06T10:48:31;14.30;;;12.00;;
5355;SDS011;70449;52.486;13.386;2023-08-06T10:51:01;14.47;;;12.90;;
5355;SDS011;70449;52.486;13.386;2023-08-06T10:53:29;18.33;;;12.60;;
5355;SDS011;70449;52.486;13.386;2023-08-06T10:55:57;15.70;;;12.93;;
5355;SDS011;70449;52.486;13.386;2023-08-06T10:58:27;19.17;;;13.40;;
5355;SDS011;70449;52.486;13.386;2023-08-06T11:00:59;11.97;;;10.40;;
5355;SDS011;70449;52.486;13.386;2023-08-06T11:03:26;12.07;;;8.30;;
5355;SDS011;70449;52.486;13.386;2023-08-06T11:05:54;14.20;;;10.03;;
5355;SDS011;70449;52.486;13.386;2023-08-06T11:08:25;8.60;;;7.67;;
5355;SDS011;70449;52.486;13.386;2023-08-06T11:10:52;11.17;;;8.20;;
5355;SDS011;70449;52.486;13.386;2023-08-06T11:13:20;11.20;;;8.10;;
5355;SDS011;70449;52.486;13.386;2023-08-06T11:15:49;13.60;;;9.23;;
5355;SDS011;70449;52.486;13.386;2023-08-06T11:18:19;14.63;;;8.83;;
5355;SDS011;70449;52.486;13.386;2023-08-06T11:20:46;12.80;;;9.57;;
5355;SDS011;70449;52.486;13.386;2023-08-06T11:23:13;14.20;;;9.60;;
5355;SDS011;70449;52.486;13.386;2023-08-06T11:25:43;13.17;;;8.90;;
5355;SDS011;70449;52.486;13.386;2023-08-06T11:28:11;17.37;;;9.13;;
5355;SDS011;70449;52.486;13.386;2023-08-06T11:30:38;14.17;;;8.70;;
5355;SDS011;70449;52.486;13.386;2023-08-06T11:33:08;10.00;;;8.63;;
5355;SDS011;70449;52.486;13.386;2023-08-06T11:35:37;10.40;;;9.00;;
5355;SDS011;70449;52.486;13.386;2023-08-06T11:38:06;21.13;;;9.63;;
5355;SDS011;70449;52.486;13.386;2023-08-06T11:40:35;15.80;;;9.90;;
5355;SDS011;70449;52.486;13.386;2023-08-06T11:43:03;12.23;;;10.50;;
5355;SDS011;70449;52.486;13.386;2023-08-06T11:45:32;14.03;;;11.10;;
5355;SDS011;70449;52.486;13.386;2023-08-06T11:48:02;12.90;;;10.37;;
5355;SDS011;70449;52.486;13.386;2023-08-06T11:50:35;13.70;;;9.93;;
5355;SDS011;70449;52.486;13.386;2023-08-06T11:53:04;12.20;;;10.07;;
5355;SDS011;70449;52.486;13.386;2023-08-06T11:55:31;12.03;;;10.63;;
5355;SDS011;70449;52.486;13.386;2023-08-06T11:58:02;12.30;;;9.53;;
5355;SDS011;70449;52.486;13.386;2023-08-06T12:00:30;11.97;;;9.40;;
5355;SDS011;70449;52.486;13.386;2023-08-06T12:02:58;11.30;;;8.40;;
5355;SDS011;70449;52.486;13.386;2023-08-06T12:05:29;10.40;;;9.30;;
5355;SDS011;70449;52.486;13.386;2023-08-06T12:08:00;11.50;;;8.90;;
5355;SDS011;70449;52.486;13.386;2023-08-06T12:10:29;11.73;;;9.17;;
5355;SDS011;70449;52.486;13.386;2023-08-06T12:12:57;12.70;;;9.43;;
5355;SDS011;70449;52.486;13.386;2023-08-06T12:15:25;11.97;;;10.00;;
5355;SDS011;70449;52.486;13.386;2023-08-06T12:17:53;17.27;;;11.13;;
5355;SDS011;70449;52.486;13.386;2023-08-06T12:20:20;19.53;;;12.53;;
5355;SDS011;70449;52.486;13.386;2023-08-06T12:22:51;12.77;;;10.60;;
5355;SDS011;70449;52.486;13.386;2023-08-06T12:25:19;18.60;;;11.47;;
5355;SDS011;70449;52.486;13.386;2023-08-06T12:27:46;18.53;;;12.17;;
5355;SDS011;70449;52.486;13.386;2023-08-06T12:30:14;12.90;;;11.10;;
5355;SDS011;70449;52.486;13.386;2023-08-06T12:32:41;19.23;;;10.93;;
5355;SDS011;70449;52.486;13.386;2023-08-06T12:35:09;12.40;;;10.37;;
5355;SDS011;70449;52.486;13.386;2023-08-06T12:37:36;14.87;;;10.27;;
5355;SDS011;70449;52.486;13.386;2023-08-06T12:40:06;14.73;;;11.37;;
5355;SDS011;70449;52.486;13.386;2023-08-06T12:42:34;19.43;;;10.50;;
5355;SDS011;70449;52.486;13.386;2023-08-06T12:45:04;13.83;;;10.90;;
5355;SDS011;70449;52.486;13.386;2023-08-06T12:47:32;15.27;;;9.87;;
5355;SDS011;70449;52.486;13.386;2023-08-06T12:50:00;18.50;;;12.83;;
5355;SDS011;70449;52.486;13.386;2023-08-06T12:52:27;14.60;;;10.17;;
5355;SDS011;70449;52.486;13.386;2023-08-06T12:54:54;14.57;;;10.30;;
5355;SDS011;70449;52.486;13.386;2023-08-06T12:57:24;9.70;;;7.90;;
5355;SDS011;70449;52.486;13.386;2023-08-06T12:59:57;10.90;;;8.17;;
5355;SDS011;70449;52.486;13.386;2023-08-06T13:02:31;12.50;;;8.77;;
5355;SDS011;70449;52.486;13.386;2023-08-06T13:05:03;13.37;;;9.53;;
5355;SDS011;70449;52.486;13.386;2023-08-06T13:07:37;12.37;;;9.40;;
5355;SDS011;70449;52.486;13.386;2023-08-06T13:10:10;10.30;;;8.20;;
5355;SDS011;70449;52.486;13.386;2023-08-06T13:12:44;14.30;;;9.80;;
5355;SDS011;70449;52.486;13.386;2023-08-06T13:15:15;13.43;;;10.50;;
5355;SDS011;70449;52.486;13.386;2023-08-06T13:17:46;12.83;;;10.00;;
5355;SDS011;70449;52.486;13.386;2023-08-06T13:20:18;11.93;;;9.73;;
5355;SDS011;70449;52.486;13.386;2023-08-06T13:22:50;13.47;;;10.70;;
5355;SDS011;70449;52.486;13.386;2023-08-06T13:25:21;22.63;;;12.57;;
5355;SDS011;70449;52.486;13.386;2023-08-06T13:27:55;9.50;;;8.07;;
5355;SDS011;70449;52.486;13.386;2023-08-06T13:30:29;11.00;;;8.30;;
5355;SDS011;70449;52.486;13.386;2023-08-06T13:33:01;10.53;;;8.23;;
5355;SDS011;70449;52.486;13.386;2023-08-06T13:35:33;12.07;;;8.27;;
5355;SDS011;70449;52.486;13.386;2023-08-06T13:38:04;11.70;;;8.67;;
5355;SDS011;70449;52.486;13.386;2023-08-06T13:40:36;10.97;;;8.93;;
5355;SDS011;70449;52.486;13.386;2023-08-06T13:43:12;11.13;;;8.63;;
5355;SDS011;70449;52.486;13.386;2023-08-06T13:45:45;16.17;;;10.67;;
5355;SDS011;70449;52.486;13.386;2023-08-06T13:48:17;10.30;;;8.93;;
5355;SDS011;70449;52.486;13.386;2023-08-06T13:50:48;13.03;;;10.00;;
5355;SDS011;70449;52.486;13.386;2023-08-06T13:53:21;11.37;;;9.23;;
5355;SDS011;70449;52.486;13.386;2023-08-06T13:55:56;15.60;;;10.67;;
5355;SDS011;70449;52.486;13.386;2023-08-06T13:58:38;16.37;;;10.70;;
5355;SDS011;70449;52.486;13.386;2023-08-06T14:01:10;16.43;;;10.40;;
5355;SDS011;70449;52.486;13.386;2023-08-06T14:03:42;10.97;;;9.23;;
5355;SDS011;70449;52.486;13.386;2023-08-06T14:06:13;22.93;;;11.40;;
5355;SDS011;70449;52.486;13.386;2023-08-06T14:08:46;17.20;;;10.87;;
5355;SDS011;70449;52.486;13.386;2023-08-06T14:11:18;19.47;;;10.57;;
5355;SDS011;70449;52.486;13.386;2023-08-06T14:13:50;20.27;;;10.90;;
5355;SDS011;70449;52.486;13.386;2023-08-06T14:16:21;15.93;;;11.27;;
5355;SDS011;70449;52.486;13.386;2023-08-06T14:18:52;13.43;;;9.40;;
5355;SDS011;70449;52.486;13.386;2023-08-06T14:21:24;21.10;;;11.60;;
5355;SDS011;70449;52.486;13.386;2023-08-06T14:23:55;17.97;;;11.47;;
5355;SDS011;70449;52.486;13.386;2023-08-06T14:26:26;16.73;;;11.13;;
5355;SDS011;70449;52.486;13.386;2023-08-06T14:28:58;25.80;;;10.60;;
5355;SDS011;70449;52.486;13.386;2023-08-06T14:31:29;16.80;;;10.53;;
5355;SDS011;70449;52.486;13.386;2023-08-06T14:34:00;16.03;;;9.60;;
5355;SDS011;70449;52.486;13.386;2023-08-06T14:36:31;11.67;;;8.67;;
5355;SDS011;70449;52.486;13.386;2023-08-06T14:39:02;10.40;;;8.20;;
5355;SDS011;70449;52.486;13.386;2023-08-06T14:41:33;10.87;;;7.90;;
5355;SDS011;70449;52.486;13.386;2023-08-06T14:44:05;11.53;;;7.37;;